Time;durP1;ratioP1;P1;durP2;ratioP2;P2;SDS_P1;SDS_P2;PMS_P1;PMS_P2;Temp;Humidity;BMP_temperature;BMP_pressure;BME280_temperature;BME280_humidity;BME280_pressure;Samples;Min_cycle;Max_cycle;Signal;HPM_P1;HPM_P2
2022/01/18 00:02:07;;;;;;;10.07;2.92;;;;;;;0.90;68.40;99203.56;12830542;23;20016;-81
2022/01/18 00:07:28;;;;;;;8.95;2.35;;;;;;;0.91;69.12;99194.06;12830147;23;20020;-81
2022/01/18 00:18:18;;;;;;;13.98;2.88;;;;;;;0.84;68.70;99207.00;12852912;23;20020;-81
2022/01/18 00:23:40;;;;;;;10.45;2.30;;;;;;;0.85;68.85;99213.25;12852350;23;20016;-81
2022/01/18 00:29:07;;;;;;;12.95;2.13;;;;;;;0.82;68.79;99226.00;12871119;23;20032;-81
2022/01/18 00:34:32;;;;;;;10.88;1.98;;;;;;;0.80;68.39;99225.75;12849723;23;20075;-80
2022/01/18 00:39:53;;;;;;;10.00;2.10;;;;;;;0.79;68.74;99243.50;12831243;23;20020;-80
2022/01/18 00:45:14;;;;;;;8.75;1.73;;;;;;;0.73;68.79;99255.69;12848809;23;20012;-81
2022/01/18 00:50:35;;;;;;;11.75;2.92;;;;;;;0.66;68.92;99245.16;12828779;23;20016;-81
2022/01/18 00:56:16;;;;;;;13.93;2.55;;;;;;;0.61;68.92;99248.63;12829765;23;20039;-81
2022/01/18 01:01:37;;;;;;;11.35;2.17;;;;;;;0.60;68.91;99256.13;12832361;23;20344;-81
2022/01/18 01:06:58;;;;;;;10.55;2.10;;;;;;;0.61;68.64;99265.13;12870650;23;20016;-80
2022/01/18 01:12:20;;;;;;;12.45;3.40;;;;;;;0.61;68.51;99270.63;12850245;23;20032;-81
2022/01/18 01:17:50;;;;;;;13.10;2.60;;;;;;;0.64;68.53;99270.38;12829392;23;20021;-81
2022/01/18 01:45:46;;;;;;;11.77;2.53;;;;;;;0.50;68.46;99285.78;12860344;23;20031;-80
2022/01/18 01:51:07;;;;;;;11.80;2.90;;;;;;;0.54;68.50;99297.31;12851459;23;20020;-80
2022/01/18 01:56:28;;;;;;;9.98;2.05;;;;;;;0.52;68.35;99305.28;12870350;23;20027;-81
2022/01/18 02:01:50;;;;;;;13.02;2.13;;;;;;;0.45;68.48;99297.47;12867423;23;20017;-80
2022/01/18 02:07:11;;;;;;;11.15;2.15;;;;;;;0.48;68.48;99306.72;12830891;23;20076;-81
2022/01/18 02:12:33;;;;;;;11.23;2.00;;;;;;;0.52;68.47;99312.78;12835324;23;20020;-81
2022/01/18 02:23:34;;;;;;;12.98;2.50;;;;;;;0.40;67.99;99305.69;12875467;23;20012;-81
2022/01/18 02:28:59;;;;;;;10.85;2.50;;;;;;;0.37;68.13;99303.91;12870990;23;20024;-81
2022/01/18 02:34:20;;;;;;;9.25;2.58;;;;;;;0.36;68.02;99299.66;12851260;23;20017;-81
2022/01/18 02:39:42;;;;;;;11.07;2.63;;;;;;;0.28;68.42;99304.84;12829859;23;20024;-80
2022/01/18 02:45:05;;;;;;;10.38;2.40;;;;;;;0.18;68.44;99298.75;12871963;23;20017;-81
2022/01/18 02:50:26;;;;;;;10.35;2.47;;;;;;;0.08;68.82;99302.91;12828158;23;20016;-81
2022/01/18 02:55:51;;;;;;;9.43;2.30;;;;;;;0.04;68.60;99299.66;12825468;23;20021;-80
2022/01/18 03:06:52;;;;;;;12.82;2.72;;;;;;;0.08;68.59;99313.91;12835683;23;20017;-80
2022/01/18 03:12:14;;;;;;;9.32;2.28;;;;;;;0.05;68.67;99306.66;12827141;23;20027;-80
2022/01/18 03:17:35;;;;;;;15.07;3.42;;;;;;;0.08;68.70;99291.94;12824961;23;20036;-81
2022/01/18 03:22:56;;;;;;;13.18;3.30;;;;;;;0.12;69.04;99289.75;12827295;23;20139;-81
2022/01/18 03:28:17;;;;;;;9.93;2.28;;;;;;;0.15;68.44;99299.00;12845889;23;20016;-80
2022/01/18 03:33:38;;;;;;;9.18;2.13;;;;;;;0.09;68.56;99301.69;12805497;23;20444;-81
2022/01/18 03:38:59;;;;;;;10.43;2.80;;;;;;;0.08;68.72;99297.44;12846618;23;20072;-79
2022/01/18 03:44:25;;;;;;;10.38;2.35;;;;;;;0.12;68.99;99308.97;12872194;23;20051;-81
2022/01/18 03:49:46;;;;;;;12.07;2.45;;;;;;;0.13;68.91;99310.47;12832154;23;20017;-81
2022/01/18 03:55:08;;;;;;;10.85;2.35;;;;;;;0.13;68.86;99317.97;12811281;23;20052;-81
2022/01/18 04:00:29;;;;;;;11.00;1.98;;;;;;;0.15;68.86;99307.97;12873303;23;20055;-81
2022/01/18 04:05:52;;;;;;;11.27;2.30;;;;;;;0.16;68.50;99309.50;12834043;23;20024;-80
2022/01/18 04:11:13;;;;;;;10.85;2.70;;;;;;;0.14;68.81;99309.22;12832521;23;20036;-80
2022/01/18 04:16:42;;;;;;;15.85;2.85;;;;;;;0.17;68.92;99307.50;12831177;23;20028;-81
2022/01/18 04:28:25;;;;;;;11.00;2.63;;;;;;;0.10;68.55;99325.19;12855104;23;20083;-80
2022/01/18 04:33:30;;;;;;;12.80;2.67;;;;;;;0.09;68.99;99337.38;12842462;23;20068;-81
2022/01/18 04:38:55;;;;;;;11.93;2.30;;;;;;;0.06;68.68;99343.84;12874270;23;20028;-81
2022/01/18 04:49:57;;;;;;;17.15;3.30;;;;;;;-0.02;68.88;99354.50;12849479;23;20044;-80
2022/01/18 04:55:19;;;;;;;14.73;3.10;;;;;;;-0.09;68.62;99362.44;12851097;23;20053;-80
2022/01/18 05:00:39;;;;;;;16.35;2.78;;;;;;;-0.11;69.02;99373.13;12850186;23;20032;-80
2022/01/18 05:06:08;;;;;;;13.13;3.20;;;;;;;-0.14;68.80;99383.06;12830628;23;20025;-80
2022/01/18 05:11:51;;;;;;;12.77;3.25;;;;;;;-0.15;68.76;99400.03;12871590;23;20026;-80
2022/01/18 05:23:09;;;;;;;14.40;3.33;;;;;;;-0.11;69.15;99400.56;12750628;23;20023;-81
2022/01/18 05:28:30;;;;;;;13.77;2.65;;;;;;;-0.12;69.49;99415.53;12869507;23;20036;-80
2022/01/18 05:33:53;;;;;;;12.25;2.88;;;;;;;-0.19;69.23;99427.69;12811063;23;20028;-79
2022/01/18 05:39:14;;;;;;;12.02;2.95;;;;;;;-0.17;69.32;99435.44;12895266;23;20343;-80
2022/01/18 05:44:36;;;;;;;10.07;2.92;;;;;;;-0.22;69.42;99428.66;12850125;23;20040;-80
2022/01/18 05:49:57;;;;;;;10.50;3.30;;;;;;;-0.26;69.68;99439.09;12832588;23;20054;-81
2022/01/18 05:55:18;;;;;;;13.32;2.83;;;;;;;-0.21;69.12;99445.88;12850565;23;20027;-81
2022/01/18 06:00:41;;;;;;;10.75;3.10;;;;;;;-0.16;69.45;99445.19;12871922;23;20016;-80
2022/01/18 06:11:43;;;;;;;12.40;4.05;;;;;;;0.13;69.31;99441.53;12850321;23;20320;-80
2022/01/18 06:17:05;;;;;;;14.57;4.72;;;;;;;0.34;68.95;99447.75;12817995;23;20501;-80
2022/01/18 06:22:27;;;;;;;12.60;3.42;;;;;;;0.50;68.92;99463.66;12859318;23;20023;-80
2022/01/18 06:27:48;;;;;;;13.27;3.28;;;;;;;0.67;68.59;99467.28;12834676;23;20028;-80
2022/01/18 06:33:09;;;;;;;12.68;3.30;;;;;;;0.81;68.43;99476.66;12845801;23;20056;-80
2022/01/18 06:38:30;;;;;;;10.30;2.83;;;;;;;0.96;68.46;99473.78;12843177;23;20012;-81
2022/01/18 06:43:52;;;;;;;16.00;2.90;;;;;;;1.09;67.66;99483.16;12841388;23;20025;-80
2022/01/18 06:49:13;;;;;;;14.57;3.10;;;;;;;1.12;67.38;99484.16;12860635;23;20013;-80
2022/01/18 06:54:34;;;;;;;10.85;2.83;;;;;;;1.11;67.53;99479.91;12860347;23;20012;-80
2022/01/18 06:59:56;;;;;;;16.23;2.85;;;;;;;1.15;68.06;99499.69;12819772;23;20023;-80
2022/01/18 07:05:17;;;;;;;16.15;2.75;;;;;;;1.22;67.44;99507.50;12819096;23;20028;-80
2022/01/18 07:10:38;;;;;;;15.30;3.67;;;;;;;1.29;67.39;99504.31;12862366;23;20439;-80
2022/01/18 07:15:59;;;;;;;12.35;2.80;;;;;;;1.40;66.66;99501.63;12819450;23;20036;-80
2022/01/18 07:21:20;;;;;;;12.95;2.55;;;;;;;1.54;67.01;99493.69;12819001;23;20301;-81
2022/01/18 07:26:41;;;;;;;13.85;2.42;;;;;;;1.65;66.68;99497.31;12836496;23;20088;-80
2022/01/18 07:32:03;;;;;;;13.60;2.58;;;;;;;1.73;67.23;99497.56;12813914;23;20095;-80
2022/01/18 07:37:24;;;;;;;12.85;2.55;;;;;;;1.89;66.39;99513.44;12837440;23;20021;-79
2022/01/18 07:42:45;;;;;;;14.70;3.63;;;;;;;1.96;66.58;99523.25;12817711;23;20020;-80
2022/01/18 07:48:13;;;;;;;12.48;2.17;;;;;;;2.10;66.24;99527.06;12839997;23;20016;-80
2022/01/18 07:53:34;;;;;;;15.40;2.75;;;;;;;2.26;65.95;99526.38;12856734;23;20027;-80
2022/01/18 07:58:55;;;;;;;12.52;2.78;;;;;;;2.42;65.44;99533.97;12835499;23;20031;-80
2022/01/18 08:04:16;;;;;;;13.25;2.83;;;;;;;2.87;65.41;99536.81;12834477;23;20025;-80
2022/01/18 08:09:37;;;;;;;15.10;3.63;;;;;;;3.27;64.84;99543.13;12830057;23;20012;-80
2022/01/18 08:15:11;;;;;;;14.65;3.45;;;;;;;3.50;63.71;99533.59;12787141;23;20048;-80
2022/01/18 08:20:43;;;;;;;15.35;3.22;;;;;;;3.50;64.04;99547.38;12799944;23;20047;-80
2022/01/18 08:26:05;;;;;;;15.20;3.05;;;;;;;3.45;64.08;99543.38;12788282;23;20406;-80
2022/01/18 08:31:26;;;;;;;16.05;4.45;;;;;;;3.84;63.61;99553.59;12803041;23;20017;-80
2022/01/18 08:36:46;;;;;;;18.10;4.15;;;;;;;4.32;62.86;99560.75;12821538;23;20439;-80
2022/01/18 08:42:08;;;;;;;19.13;4.18;;;;;;;4.29;62.44;99570.81;12801714;23;20096;-80
2022/01/18 08:47:29;;;;;;;16.63;4.60;;;;;;;4.35;62.98;99575.59;12849916;23;20023;-80
2022/01/18 08:52:52;;;;;;;18.92;4.65;;;;;;;4.38;61.37;99580.09;12804084;23;20024;-81
2022/01/18 08:58:13;;;;;;;18.63;5.50;;;;;;;5.00;61.68;99594.38;12843629;23;20206;-80
2022/01/18 09:03:34;;;;;;;12.10;3.40;;;;;;;5.21;61.39;99592.75;12782135;23;20036;-80
2022/01/18 09:08:56;;;;;;;12.90;3.40;;;;;;;5.26;61.08;99610.59;12782915;23;20431;-80
2022/01/18 09:14:17;;;;;;;14.48;3.53;;;;;;;5.32;61.07;99614.81;12837939;23;20044;-80
2022/01/18 09:19:39;;;;;;;13.05;3.03;;;;;;;5.40;60.69;99620.53;12804313;23;20017;-80
2022/01/18 09:25:01;;;;;;;14.55;3.50;;;;;;;5.08;60.84;99629.31;12822555;23;20013;-79
2022/01/18 09:30:26;;;;;;;14.10;3.30;;;;;;;4.86;61.00;99634.97;12841560;23;20475;-79
2022/01/18 09:35:46;;;;;;;16.25;3.78;;;;;;;4.83;61.10;99638.78;12801083;23;20097;-80
2022/01/18 09:41:11;;;;;;;12.95;3.83;;;;;;;5.03;60.90;99649.47;12840667;23;20107;-79
2022/01/18 09:46:32;;;;;;;13.73;3.28;;;;;;;5.36;60.68;99647.78;12821378;23;20401;-79
2022/01/18 09:51:53;;;;;;;15.68;3.63;;;;;;;5.32;60.06;99669.47;12820969;23;20021;-79
2022/01/18 09:57:14;;;;;;;15.77;3.70;;;;;;;5.14;59.90;99645.91;12841366;23;20403;-79
2022/01/18 10:02:36;;;;;;;13.73;3.42;;;;;;;5.08;60.23;99640.38;12837260;23;20040;-80
2022/01/18 10:08:10;;;;;;;17.80;3.03;;;;;;;5.06;60.09;99648.44;12842556;23;20024;-79
2022/01/18 10:13:32;;;;;;;14.40;3.10;;;;;;;4.89;59.96;99653.31;12820178;23;20092;-78
2022/01/18 10:19:03;;;;;;;14.43;3.60;;;;;;;4.85;59.85;99636.97;12799797;23;20028;-78
2022/01/18 10:24:26;;;;;;;18.25;3.90;;;;;;;5.17;59.52;99647.63;12843213;23;20016;-78
2022/01/18 10:29:49;;;;;;;10.85;3.13;;;;;;;5.41;59.50;99633.16;12822901;23;20041;-77
2022/01/18 10:35:12;;;;;;;17.63;3.55;;;;;;;6.07;58.91;99630.34;12820648;23;20016;-78
2022/01/18 10:40:33;;;;;;;14.20;4.20;;;;;;;6.58;57.79;99639.66;12799133;23;20067;-78
2022/01/18 10:46:14;;;;;;;14.60;3.50;;;;;;;6.33;56.72;99641.69;12799853;23;20013;-78
2022/01/18 10:51:39;;;;;;;15.32;3.78;;;;;;;6.10;57.54;99629.31;12824090;23;20021;-78
2022/01/18 10:57:02;;;;;;;12.07;3.80;;;;;;;6.01;57.43;99625.63;12824030;23;20024;-76
2022/01/18 11:02:24;;;;;;;13.35;3.58;;;;;;;5.88;57.45;99630.25;12803344;23;20024;-80
2022/01/18 11:07:46;;;;;;;11.95;3.47;;;;;;;5.76;57.61;99632.34;12804042;23;20435;-78
2022/01/18 11:13:11;;;;;;;11.43;3.22;;;;;;;5.74;57.45;99607.19;12841574;23;20091;-78
2022/01/18 11:18:36;;;;;;;13.35;4.32;;;;;;;5.87;57.77;99609.34;12865257;23;20016;-80
2022/01/18 11:23:58;;;;;;;14.18;4.35;;;;;;;5.88;57.30;99622.66;12805593;23;20444;-81
2022/01/18 11:29:19;;;;;;;14.90;5.00;;;;;;;5.89;57.17;99621.44;12843493;23;20429;-80
2022/01/18 11:34:43;;;;;;;13.23;3.78;;;;;;;5.90;56.74;99622.19;12823221;23;20039;-80
2022/01/18 11:40:07;;;;;;;15.82;5.00;;;;;;;5.84;57.01;99619.44;12844660;23;20070;-79
2022/01/18 11:45:30;;;;;;;19.33;4.78;;;;;;;5.86;57.35;99622.44;12802613;23;20020;-79
2022/01/18 11:51:05;;;;;;;16.42;4.90;;;;;;;6.03;56.86;99627.88;12846404;23;20116;-80
2022/01/18 11:56:38;;;;;;;15.95;4.60;;;;;;;6.12;56.80;99621.22;12879513;23;20022;-79
2022/01/18 12:02:00;;;;;;;18.65;5.72;;;;;;;6.24;56.44;99622.63;12857672;23;20009;-80
2022/01/18 12:07:33;;;;;;;15.20;4.00;;;;;;;6.32;56.41;99618.00;12836737;23;20016;-81
2022/01/18 12:12:55;;;;;;;15.43;4.53;;;;;;;6.29;56.52;99632.91;12876000;23;20027;-80
2022/01/18 12:18:24;;;;;;;11.90;4.55;;;;;;;6.29;56.25;99630.13;12896412;23;20044;-79
2022/01/18 12:23:45;;;;;;;15.25;4.57;;;;;;;6.20;55.71;99628.47;12853693;23;20016;-80
2022/01/18 12:34:45;;;;;;;11.30;3.85;;;;;;;5.93;56.16;99619.13;12879554;23;20017;-80
2022/01/18 12:46:22;;;;;;;;;;;;;;;5.79;55.85;99620.25;12805548;23;20396;-77
2022/01/18 12:51:44;;;;;;;15.95;4.47;;;;;;;5.76;56.18;99618.50;12756908;23;19961;-77
2022/01/18 12:57:31;;;;;;;14.63;3.92;;;;;;;5.59;56.27;99615.13;12756337;23;20028;-78
2022/01/18 13:02:58;;;;;;;12.02;3.60;;;;;;;5.57;56.63;99617.66;12772060;23;20031;-77
2022/01/18 13:08:21;;;;;;;9.43;3.88;;;;;;;5.47;56.37;99606.91;12838993;23;20016;-78
2022/01/18 13:13:50;;;;;;;13.30;4.20;;;;;;;5.44;56.72;99607.19;12871527;23;20016;-79
2022/01/18 13:25:05;;;;;;;10.13;3.55;;;;;;;5.39;56.16;99603.16;12864817;23;20011;-78
2022/01/18 13:30:28;;;;;;;16.50;3.90;;;;;;;5.27;56.71;99599.00;12903164;23;20004;-80
2022/01/18 13:35:49;;;;;;;13.80;4.47;;;;;;;5.10;56.69;99601.09;12858160;23;20020;-80
2022/01/18 13:41:11;;;;;;;17.42;4.70;;;;;;;4.96;57.20;99605.72;12891439;23;20001;-79
2022/01/18 13:46:32;;;;;;;14.52;4.40;;;;;;;4.84;57.50;99605.03;12829993;23;20019;-77
2022/01/18 13:52:00;;;;;;;16.48;4.95;;;;;;;4.86;57.90;99610.06;12819528;23;20012;-78
2022/01/18 13:57:22;;;;;;;16.50;4.75;;;;;;;4.86;57.78;99602.50;12839857;23;20017;-78
2022/01/18 14:02:46;;;;;;;11.45;4.93;;;;;;;4.77;57.55;99615.91;12792789;23;20375;-78
2022/01/18 14:08:11;;;;;;;17.47;5.50;;;;;;;4.74;58.15;99612.13;12820040;23;20012;-77
2022/01/18 14:13:36;;;;;;;13.00;4.78;;;;;;;4.68;58.16;99608.63;12840180;23;20012;-78
2022/01/18 14:19:00;;;;;;;15.25;4.97;;;;;;;4.62;58.22;99615.44;12820175;23;20432;-78
2022/01/18 14:24:25;;;;;;;13.80;4.93;;;;;;;4.58;59.00;99616.47;12882499;23;20032;-78
2022/01/18 14:29:51;;;;;;;18.67;5.53;;;;;;;4.57;59.09;99608.69;12819323;23;20023;-77
2022/01/18 14:35:21;;;;;;;15.98;5.18;;;;;;;4.52;59.16;99612.97;12840268;23;20021;-78
2022/01/18 14:40:44;;;;;;;14.40;5.60;;;;;;;4.48;59.06;99617.28;12798945;23;20016;-78
2022/01/18 14:46:20;;;;;;;18.00;5.40;;;;;;;4.42;58.82;99611.00;12838559;23;20021;-78
2022/01/18 14:51:43;;;;;;;14.48;5.60;;;;;;;4.40;59.50;99613.53;12801487;23;20020;-78
2022/01/18 14:57:04;;;;;;;14.90;4.95;;;;;;;4.33;59.84;99612.03;12818064;23;20140;-77
2022/01/18 15:02:25;;;;;;;16.27;5.15;;;;;;;4.23;60.04;99619.09;12819163;23;20021;-77
2022/01/18 15:07:46;;;;;;;16.67;5.05;;;;;;;4.17;59.69;99616.34;12838656;23;20016;-77
2022/01/18 15:13:08;;;;;;;12.90;4.85;;;;;;;4.19;60.26;99622.13;12818900;23;20020;-77
2022/01/18 15:18:29;;;;;;;11.45;4.25;;;;;;;4.21;60.42;99630.66;12819559;23;20108;-77
2022/01/18 15:23:54;;;;;;;11.68;4.18;;;;;;;4.20;60.92;99623.63;12839502;23;20013;-78
2022/01/18 15:29:15;;;;;;;14.45;4.03;;;;;;;4.18;60.52;99623.38;12859643;23;20016;-78
2022/01/18 15:34:36;;;;;;;10.15;3.80;;;;;;;4.16;60.87;99631.44;12818299;23;20017;-78
2022/01/18 15:40:01;;;;;;;13.02;4.10;;;;;;;4.14;60.54;99645.00;12842822;23;20387;-78
2022/01/18 15:45:22;;;;;;;14.50;3.92;;;;;;;4.11;61.04;99639.72;12843257;23;20048;-77
2022/01/18 15:50:42;;;;;;;13.77;5.28;;;;;;;4.03;61.04;99633.97;12801407;23;20100;-78
2022/01/18 15:56:03;;;;;;;10.55;4.03;;;;;;;4.00;61.35;99641.25;12800708;23;20016;-78
2022/01/18 16:01:24;;;;;;;13.88;5.55;;;;;;;4.00;61.55;99644.00;12822312;23;20340;-78
2022/01/18 16:06:46;;;;;;;13.98;5.80;;;;;;;3.99;61.88;99650.06;12842202;23;20450;-78
2022/01/18 16:12:14;;;;;;;16.67;7.25;;;;;;;3.99;61.98;99645.28;12803836;23;20455;-78
2022/01/18 16:17:35;;;;;;;14.65;6.10;;;;;;;3.98;61.97;99651.31;12821963;23;20017;-77
2022/01/18 16:22:56;;;;;;;14.60;7.18;;;;;;;3.99;62.07;99633.47;12843011;23;20092;-77
2022/01/18 16:28:17;;;;;;;12.55;5.35;;;;;;;3.97;62.06;99644.28;12844288;23;20435;-77
2022/01/18 16:33:38;;;;;;;10.88;5.82;;;;;;;3.99;61.95;99639.00;12821435;23;20013;-78
2022/01/18 16:39:00;;;;;;;16.90;5.25;;;;;;;3.99;62.19;99642.50;12842994;23;20020;-79
2022/01/18 16:44:21;;;;;;;16.02;6.10;;;;;;;3.98;62.40;99637.50;12842258;23;20032;-81
2022/01/18 16:49:42;;;;;;;12.15;5.35;;;;;;;3.89;62.66;99630.22;12822428;23;20021;-78
2022/01/18 16:55:03;;;;;;;14.32;5.22;;;;;;;3.83;62.60;99639.75;12820579;23;20016;-78
2022/01/18 17:00:25;;;;;;;15.65;5.90;;;;;;;3.74;62.82;99622.19;12821283;23;20317;-79
2022/01/18 17:05:45;;;;;;;11.57;5.13;;;;;;;3.58;62.65;99625.72;12820712;23;20024;-78
2022/01/18 17:11:06;;;;;;;12.50;5.53;;;;;;;3.47;63.43;99627.69;12841222;23;20066;-80
2022/01/18 17:16:28;;;;;;;12.02;5.25;;;;;;;3.48;63.46;99638.25;12807552;23;20098;-81
2022/01/18 17:21:49;;;;;;;13.88;5.50;;;;;;;3.51;63.50;99634.50;12806114;23;20447;-80
2022/01/18 17:27:10;;;;;;;15.25;6.88;;;;;;;3.52;63.37;99630.47;12809843;23;20024;-77
2022/01/18 17:32:31;;;;;;;17.70;9.82;;;;;;;3.60;63.54;99639.78;12820678;23;20024;-75
2022/01/18 17:37:52;;;;;;;13.75;7.60;;;;;;;3.63;63.33;99638.75;12819387;23;20020;-78
2022/01/18 17:43:15;;;;;;;13.63;6.75;;;;;;;3.64;63.64;99647.78;12820006;23;20458;-76
2022/01/18 17:48:36;;;;;;;15.32;6.35;;;;;;;3.67;63.55;99653.09;12799863;23;20379;-79
2022/01/18 17:53:58;;;;;;;17.48;8.50;;;;;;;3.68;63.56;99651.81;12796078;23;20095;-77
2022/01/18 17:59:20;;;;;;;18.20;8.27;;;;;;;3.67;63.68;99652.34;12840438;23;20026;-78
2022/01/18 18:04:42;;;;;;;15.30;7.78;;;;;;;3.67;63.63;99655.84;12799304;23;20021;-78
2022/01/18 18:10:09;;;;;;;21.33;10.50;;;;;;;3.66;63.69;99646.03;12822112;23;20021;-77
2022/01/18 18:15:30;;;;;;;17.25;8.85;;;;;;;3.65;63.70;99630.72;12819725;23;20024;-78
2022/01/18 18:20:51;;;;;;;13.32;7.30;;;;;;;3.61;64.22;99621.94;12780153;23;20472;-77
2022/01/18 18:26:12;;;;;;;24.60;13.27;;;;;;;3.63;63.77;99622.19;12799274;23;20016;-74
2022/01/18 18:31:33;;;;;;;11.95;6.38;;;;;;;3.64;63.77;99631.97;12818485;23;20024;-77
2022/01/18 18:36:54;;;;;;;14.20;6.90;;;;;;;3.61;64.24;99619.19;12819383;23;20071;-74
2022/01/18 18:42:23;;;;;;;11.02;6.00;;;;;;;3.60;63.82;99614.91;12798803;23;20339;-74
2022/01/18 18:47:44;;;;;;;12.55;6.38;;;;;;;3.63;64.39;99618.66;12797194;23;20013;-74
2022/01/18 18:53:05;;;;;;;11.73;5.93;;;;;;;3.64;64.30;99596.06;12839286;23;20013;-74
2022/01/18 19:03:50;;;;;;;;;;;;;;;3.63;64.34;99591.81;12819687;23;20050;-74
2022/01/18 19:09:11;;;;;;;13.68;7.05;;;;;;;3.66;64.48;99601.84;12840246;23;20231;-74
2022/01/18 19:14:33;;;;;;;12.82;7.90;;;;;;;3.69;64.51;99616.69;12843114;23;20013;-76
2022/01/18 19:19:54;;;;;;;15.70;8.73;;;;;;;3.73;64.12;99637.25;12816313;23;20016;-76
2022/01/18 19:25:15;;;;;;;17.50;9.40;;;;;;;3.77;64.42;99631.50;12842943;23;20503;-76
2022/01/18 19:30:35;;;;;;;16.70;8.90;;;;;;;3.76;64.28;99624.44;12822780;23;20328;-74
2022/01/18 19:35:58;;;;;;;15.40;8.25;;;;;;;3.79;64.40;99628.22;12822596;23;20359;-74
2022/01/18 19:41:19;;;;;;;18.10;9.70;;;;;;;3.79;64.46;99619.94;12842544;23;20021;-74
2022/01/18 19:46:39;;;;;;;16.50;9.60;;;;;;;3.82;63.51;99646.53;12800906;23;20023;-74
2022/01/18 19:52:01;;;;;;;16.83;10.50;;;;;;;3.85;64.30;99634.47;12862640;23;20059;-74
2022/01/18 19:57:21;;;;;;;13.52;7.70;;;;;;;3.85;64.17;99626.19;12822174;23;20092;-74
2022/01/18 20:02:42;;;;;;;14.57;8.10;;;;;;;3.90;63.83;99625.44;12838055;23;20024;-74
2022/01/18 20:08:04;;;;;;;12.35;6.55;;;;;;;3.90;64.01;99617.16;12801542;23;20044;-74
2022/01/18 20:13:25;;;;;;;12.20;6.28;;;;;;;3.88;63.87;99623.19;12821198;23;20451;-74
2022/01/18 20:18:48;;;;;;;10.05;5.65;;;;;;;3.91;64.31;99622.16;12841843;23;20017;-73
2022/01/18 20:24:10;;;;;;;18.38;11.52;;;;;;;3.92;64.04;99634.72;12822421;23;20021;-74
2022/01/18 20:29:31;;;;;;;9.38;4.95;;;;;;;3.91;64.30;99638.00;12842192;23;20087;-75
2022/01/18 20:34:52;;;;;;;9.98;5.57;;;;;;;3.91;64.11;99622.16;12800860;23;20016;-75
2022/01/18 20:40:14;;;;;;;8.73;5.05;;;;;;;3.95;64.23;99605.31;12820797;23;20016;-75
2022/01/18 20:45:35;;;;;;;11.98;5.65;;;;;;;4.00;63.88;99597.03;12821081;23;20428;-74
2022/01/18 20:50:56;;;;;;;9.23;6.03;;;;;;;4.01;64.14;99586.75;12840758;23;20021;-76
2022/01/18 20:56:16;;;;;;;12.07;6.75;;;;;;;3.99;64.27;99578.22;12795761;23;20067;-76
2022/01/18 21:01:37;;;;;;;12.25;6.53;;;;;;;3.97;64.46;99575.94;12840772;23;20308;-76
2022/01/18 21:07:01;;;;;;;11.25;6.72;;;;;;;3.99;64.32;99583.72;12799379;23;20020;-76
2022/01/18 21:12:29;;;;;;;13.63;6.50;;;;;;;4.01;64.39;99595.78;12843115;23;20028;-76
2022/01/18 21:17:49;;;;;;;11.65;6.38;;;;;;;4.00;64.23;99596.28;12837064;23;20352;-76
2022/01/18 21:23:10;;;;;;;11.25;6.20;;;;;;;4.03;64.09;99600.78;12814586;23;20380;-76
2022/01/18 21:28:31;;;;;;;11.27;5.70;;;;;;;4.07;64.23;99595.03;12836970;23;20079;-77
2022/01/18 21:33:52;;;;;;;11.07;6.50;;;;;;;4.09;64.10;99604.31;12816613;23;20111;-77
2022/01/18 21:39:13;;;;;;;10.77;5.68;;;;;;;4.07;63.97;99601.31;12796868;23;20420;-77
2022/01/18 21:44:34;;;;;;;10.02;5.90;;;;;;;4.10;63.81;99605.81;12837726;23;20087;-76
2022/01/18 21:49:55;;;;;;;9.32;5.90;;;;;;;4.05;64.02;99603.03;12837058;23;20017;-76
2022/01/18 21:55:16;;;;;;;9.85;6.03;;;;;;;4.05;64.14;99589.97;12816625;23;20023;-77
2022/01/18 22:00:38;;;;;;;11.95;6.50;;;;;;;4.06;64.33;99588.75;12837431;23;20020;-76
2022/01/18 22:05:59;;;;;;;13.43;6.00;;;;;;;4.04;64.24;99596.78;12819362;23;20023;-76
2022/01/18 22:11:20;;;;;;;10.93;5.80;;;;;;;4.07;64.41;99583.97;12799340;23;20044;-76
2022/01/18 22:16:41;;;;;;;9.70;5.53;;;;;;;4.09;64.18;99581.44;12839745;23;20013;-76
2022/01/18 22:22:03;;;;;;;8.75;5.35;;;;;;;4.06;64.11;99566.63;12824994;23;20020;-76
2022/01/18 22:27:24;;;;;;;7.38;4.55;;;;;;;4.06;64.18;99572.16;12839584;23;20040;-76
2022/01/18 22:32:45;;;;;;;10.80;4.95;;;;;;;4.07;64.01;99559.09;12839398;23;20389;-76
2022/01/18 22:38:07;;;;;;;7.00;4.35;;;;;;;4.08;63.98;99547.53;12798994;23;20439;-76
2022/01/18 22:43:28;;;;;;;7.82;4.35;;;;;;;4.12;64.06;99550.78;12839331;23;20458;-76
2022/01/18 22:48:48;;;;;;;7.30;4.32;;;;;;;4.12;64.19;99538.97;12844431;23;20012;-76
2022/01/18 22:54:09;;;;;;;7.28;4.15;;;;;;;4.11;63.86;99523.66;12803264;23;20020;-76
2022/01/18 22:59:30;;;;;;;5.55;3.55;;;;;;;4.13;63.68;99529.41;12823760;23;20028;-76
2022/01/18 23:04:51;;;;;;;6.20;4.07;;;;;;;4.14;63.87;99523.38;12809528;23;20455;-76
2022/01/18 23:10:12;;;;;;;6.93;4.25;;;;;;;4.11;63.67;99521.63;12823068;23;20431;-76
2022/01/18 23:15:34;;;;;;;5.40;3.38;;;;;;;4.12;63.67;99517.59;12822586;23;20507;-76
2022/01/18 23:20:56;;;;;;;6.43;3.10;;;;;;;4.15;63.69;99524.91;12823661;23;20390;-76
2022/01/18 23:26:17;;;;;;;5.75;3.40;;;;;;;4.16;63.43;99534.69;12801892;23;20071;-76
2022/01/18 23:31:38;;;;;;;5.75;3.33;;;;;;;4.11;63.64;99524.41;12822246;23;20012;-76
2022/01/18 23:37:00;;;;;;;6.45;3.75;;;;;;;4.13;63.13;99510.06;12843145;23;20043;-76
2022/01/18 23:42:21;;;;;;;6.72;3.00;;;;;;;4.11;63.33;99512.59;12822182;23;20020;-76
2022/01/18 23:47:42;;;;;;;6.65;3.58;;;;;;;4.11;63.22;99515.34;12842631;23;20013;-76
2022/01/18 23:53:04;;;;;;;4.82;2.90;;;;;;;4.09;63.20;99515.88;12842335;23;20013;-76
2022/01/18 23:58:25;;;;;;;6.22;3.10;;;;;;;4.08;63.41;99519.16;12841822;23;20024;-76
